INFORMACIÓN METAR y TAF
METAR FOR VECC
ADDS - METARS form results

(0507 UTC 19 December 2018)
Data provider http://aviationweather.gov/metar/data/
 
METAR text: VECC 190500Z 34009KT 3500 HZ FEW020 20/14 Q1017 NOSIG
Conditions at: VECC (CALCUTTA/DUM DUM, IN) observed 0500 UTC 19 December 2018
Temperature: 20.0°C (68°F)
Dewpoint: 14.0°C (57°F) [RH = 68%]
Pressure (altimeter): 30.03 inches Hg (1017.0 mb)
Winds: from the NNW (340 degrees) at 10 MPH (9 knots; 4.6 m/s)
Visibility: 2.17 miles (3.49 km)
Ceiling: at least 12,000 feet AGL
Clouds: few clouds at 2000 feet AGL
Weather: HZ  (haze)

METAR text: VECC 190430Z 34008KT 3200 HZ FEW020 18/14 Q1018 NOSIG
Conditions at: VECC (CALCUTTA/DUM DUM, IN) observed 0430 UTC 19 December 2018
Temperature: 18.0°C (64°F)
Dewpoint: 14.0°C (57°F) [RH = 77%]
Pressure (altimeter): 30.06 inches Hg (1018.0 mb)
Winds: from the NNW (340 degrees) at 9 MPH (8 knots; 4.1 m/s)
Visibility: 1.99 miles (3.20 km)
Ceiling: at least 12,000 feet AGL
Clouds: few clouds at 2000 feet AGL
Weather: HZ  (haze)

Forecast for: VECC (CALCUTTA/DUM DUM, IN)
Text: TAF VECC 190200Z 1903/1912 35007KT 2500 HZ NSC
Forecast period: 0300 to 0400 UTC 19 December 2018
Forecast type: FROM: standard forecast or significant change
Winds: from the N (350 degrees) at 8 MPH (7 knots; 3.6 m/s)
Visibility: 1.55 miles (2.49 km)
Ceiling: unknown
Clouds: missing
Weather: HZ  (haze)
Text: BECMG 1904/1906 4000 HZ
Forecast period: 0400 to 1200 UTC 19 December 2018
Forecast type: BECOMING: Conditions expected to become as follows by 0600 UTC 19 December 2018
Winds: from the N (350 degrees) at 8 MPH (7 knots; 3.6 m/s)
Visibility: 2.49 miles (4.01 km)
Ceiling: unknown
Clouds: missing
Weather: HZ  (haze)

 MAPA DE AEROPUERTO

 INFORMACIÓN DE PISTA
Pista 01L Longitud 7871 ft Ancho 150 ft
Elevación 19 ft Umbral desplazado 0 ft Rumbo de pista 6
Pista 19R Longitud 7871 ft Ancho 150 ft
Elevación 19 ft Umbral desplazado 0 ft Rumbo de pista 186
Pista 01R Longitud 11900 ft Ancho 150 ft
Elevación 20 ft Umbral desplazado 0 ft Rumbo de pista 6
Pista 19L Longitud 11900 ft Ancho 150 ft
Elevación 19 ft Umbral desplazado 1390 ft Rumbo de pista 186

 FRECUANCIAS DEL AEROPUERTO
Tipo A/G Nombre KOLKATA RD Frecuencia 127.3 MHZ
Tipo ACC Nombre KOLKATA CO Frecuencia 119.3 MHZ
Tipo APP Nombre KOLKATA AP Frecuencia 127.9 MHZ
Tipo APP CONTRO Nombre KOLKATA CO Frecuencia 132.45 MHZ
Tipo ATIS Nombre ATIS Frecuencia 126.4 MHZ
Tipo GND Nombre KOLKATA GN Frecuencia 121.9 MHZ
Tipo RADAR Nombre Feeder ARE Frecuencia 127.3 MHZ
Tipo TWR Nombre KOLKATA TW Frecuencia 118.1 MHZ

 RADIO AYUDAS DEL AEROPUERTO
Tipo VOR-DME Nombre Kolkata Frecuencia 112500 KHZ
Tipo NDB Nombre Kolkata Frecuencia 385 KHZ



Powered by Virtual Airlines Manager [v2.6.2]